createdAt,value
2023-03-17T00:02:51.940Z,8.20
2023-03-17T00:07:56.055Z,7.67
2023-03-17T00:13:00.812Z,4.60
2023-03-17T00:18:05.627Z,5.13
2023-03-17T00:23:12.088Z,6.37
2023-03-17T00:28:19.347Z,5.07
2023-03-17T00:33:24.856Z,6.77
2023-03-17T00:38:28.376Z,5.47
2023-03-17T00:43:35.917Z,6.77
2023-03-17T00:48:39.622Z,6.60
2023-03-17T00:53:42.911Z,5.50
2023-03-17T00:58:49.445Z,5.80
2023-03-17T01:03:52.958Z,7.57
2023-03-17T01:08:56.917Z,6.00
2023-03-17T01:14:02.307Z,5.93
2023-03-17T01:19:06.056Z,6.07
2023-03-17T01:24:09.717Z,8.47
2023-03-17T01:29:14.565Z,9.20
2023-03-17T01:34:18.376Z,6.47
2023-03-17T01:39:21.814Z,5.63
2023-03-17T01:44:27.619Z,7.77
2023-03-17T01:49:33.324Z,6.33
2023-03-17T01:54:38.307Z,5.53
2023-03-17T01:59:45.853Z,8.00
2023-03-17T02:04:49.918Z,8.40
2023-03-17T02:09:54.868Z,6.60
2023-03-17T02:14:59.912Z,8.80
2023-03-17T02:20:14.170Z,5.53
2023-03-17T02:25:20.601Z,6.90
2023-03-17T02:30:25.308Z,7.10
2023-03-17T02:35:28.631Z,8.13
2023-03-17T02:40:33.688Z,6.20
2023-03-17T02:45:37.331Z,6.77
2023-03-17T02:50:40.748Z,6.17
2023-03-17T02:55:45.805Z,6.20
2023-03-17T03:00:49.978Z,10.20
2023-03-17T03:05:53.542Z,9.47
2023-03-17T03:10:58.324Z,7.77
2023-03-17T03:16:01.651Z,8.23
2023-03-17T03:21:05.567Z,7.37
2023-03-17T03:26:10.343Z,9.23
2023-03-17T03:31:14.174Z,10.67
2023-03-17T03:36:17.554Z,10.37
2023-03-17T03:41:22.713Z,6.63
2023-03-17T03:46:26.746Z,7.07
2023-03-17T03:51:30.114Z,6.73
2023-03-17T03:56:34.920Z,6.53
2023-03-17T04:01:39.186Z,6.03
2023-03-17T04:06:42.539Z,9.27
2023-03-17T04:11:47.362Z,7.53
2023-03-17T04:16:50.853Z,6.73
2023-03-17T04:21:54.865Z,10.20
2023-03-17T04:26:59.611Z,6.30
2023-03-17T04:32:03.487Z,7.37
2023-03-17T04:37:07.262Z,8.20
2023-03-17T04:42:12.340Z,7.87
2023-03-17T04:47:15.674Z,5.80
2023-03-17T04:52:20.333Z,7.43
2023-03-17T04:57:25.621Z,10.47
2023-03-17T05:02:29.240Z,7.20
2023-03-17T05:07:34.202Z,7.50
2023-03-17T05:12:39.044Z,7.03
2023-03-17T05:17:42.481Z,7.03
2023-03-17T05:22:45.773Z,7.00
2023-03-17T05:27:50.517Z,12.43
2023-03-17T05:32:54.000Z,9.27
2023-03-17T05:37:57.599Z,10.17
2023-03-17T05:43:02.665Z,8.40
2023-03-17T05:48:06.089Z,11.47
2023-03-17T05:53:09.532Z,10.80
2023-03-17T05:58:15.829Z,15.20
2023-03-17T06:03:19.166Z,12.27
2023-03-17T06:08:22.819Z,8.30
2023-03-17T06:13:27.578Z,12.23
2023-03-17T06:18:30.934Z,17.83
2023-03-17T06:23:34.568Z,10.23
2023-03-17T06:28:39.411Z,9.13
2023-03-17T06:33:42.669Z,9.43
2023-03-17T06:38:46.253Z,10.40
2023-03-17T06:43:51.092Z,9.13
2023-03-17T06:48:54.707Z,11.47
2023-03-17T06:53:58.116Z,8.80
2023-03-17T06:59:03.217Z,7.60
2023-03-17T07:04:07.124Z,7.37
2023-03-17T07:09:10.989Z,9.50
2023-03-17T07:14:15.629Z,8.73
2023-03-17T07:19:19.456Z,7.90
2023-03-17T07:24:23.026Z,6.67
2023-03-17T07:29:29.340Z,9.17
2023-03-17T07:34:32.996Z,8.17
2023-03-17T07:39:36.316Z,7.23
2023-03-17T07:44:41.806Z,7.40
2023-03-17T07:49:45.379Z,8.13
2023-03-17T07:54:48.890Z,6.97
2023-03-17T07:59:53.764Z,8.37
2023-03-17T08:04:57.880Z,7.23
2023-03-17T08:10:01.788Z,8.23
2023-03-17T08:15:07.800Z,6.90
2023-03-17T08:20:12.402Z,6.60
2023-03-17T08:25:15.881Z,6.83
2023-03-17T08:30:21.068Z,11.60
2023-03-17T08:35:25.018Z,8.13
2023-03-17T08:40:28.665Z,5.97
2023-03-17T08:45:34.076Z,4.83
2023-03-17T08:50:37.784Z,5.80
2023-03-17T08:55:41.419Z,7.73
2023-03-17T09:00:47.004Z,8.77
2023-03-17T09:05:51.544Z,9.90
2023-03-17T09:10:54.920Z,8.53
2023-03-17T09:16:00.099Z,6.73
2023-03-17T09:21:03.669Z,7.67
2023-03-17T09:26:07.699Z,6.33
2023-03-17T09:31:13.754Z,6.13
2023-03-17T09:36:17.173Z,8.83
2023-03-17T09:41:28.214Z,3.73
2023-03-17T09:46:37.086Z,3.87
2023-03-17T09:51:40.911Z,4.83
2023-03-17T09:56:47.595Z,6.50
2023-03-17T10:01:52.844Z,6.07
2023-03-17T10:07:01.285Z,3.97
2023-03-17T10:12:08.633Z,6.60
2023-03-17T10:17:16.692Z,4.00
2023-03-17T10:22:23.862Z,6.10
2023-03-17T10:27:28.184Z,4.13
2023-03-17T10:32:35.952Z,5.07
2023-03-17T10:37:40.577Z,3.37
2023-03-17T10:42:49.216Z,3.70
2023-03-17T10:47:56.930Z,3.17
2023-03-17T10:53:01.385Z,4.13
2023-03-17T10:58:07.364Z,3.50
2023-03-17T11:03:16.260Z,3.17
2023-03-17T11:08:21.147Z,3.70
2023-03-17T11:13:30.523Z,5.97
2023-03-17T11:18:42.896Z,3.30
2023-03-17T11:23:48.834Z,2.30
2023-03-17T11:28:55.918Z,2.90
2023-03-17T11:34:03.336Z,2.90
2023-03-17T11:39:12.093Z,2.10
2023-03-17T11:44:24.574Z,2.43
2023-03-17T11:49:35.270Z,4.17
2023-03-17T11:54:43.392Z,5.40
2023-03-17T11:59:49.848Z,1.93
2023-03-17T12:04:57.435Z,5.60
2023-03-17T12:10:05.040Z,2.30
2023-03-17T12:15:16.397Z,3.27
2023-03-17T12:20:22.673Z,4.37
2023-03-17T12:25:27.774Z,2.10
2023-03-17T12:30:33.452Z,4.07
2023-03-17T12:35:39.674Z,3.57
2023-03-17T12:40:54.007Z,3.23
2023-03-17T12:46:06.090Z,3.40
2023-03-17T12:51:31.326Z,2.20
2023-03-17T12:56:38.007Z,4.13
2023-03-17T13:01:45.091Z,2.83
2023-03-17T13:06:49.660Z,2.20
2023-03-17T13:11:54.542Z,3.27
2023-03-17T13:17:04.915Z,2.23
2023-03-17T13:22:34.996Z,2.87
2023-03-17T13:27:50.063Z,4.27
2023-03-17T13:32:57.147Z,2.27
2023-03-17T13:38:09.182Z,2.67
2023-03-17T13:43:21.971Z,3.33
2023-03-17T13:48:28.560Z,3.17
2023-03-17T13:53:34.180Z,1.93
2023-03-17T13:58:50.248Z,2.67
2023-03-17T14:03:56.718Z,2.30
2023-03-17T14:09:02.012Z,2.97
2023-03-17T14:14:26.047Z,2.33
2023-03-17T14:19:39.087Z,2.03
2023-03-17T14:24:42.487Z,2.90
2023-03-17T14:29:47.460Z,4.63
2023-03-17T14:34:56.845Z,3.40
2023-03-17T14:40:00.443Z,2.60
2023-03-17T14:45:06.847Z,4.03
2023-03-17T14:50:15.998Z,3.73
2023-03-17T14:55:20.019Z,3.60
2023-03-17T15:00:34.094Z,3.33
2023-03-17T15:05:38.736Z,3.33
2023-03-17T15:10:43.018Z,2.93
2023-03-17T15:15:48.065Z,2.43
2023-03-17T15:20:51.448Z,3.30
2023-03-17T15:25:56.544Z,3.97
2023-03-17T15:31:12.433Z,4.67
2023-03-17T15:36:31.387Z,3.43
2023-03-17T15:41:35.818Z,4.27
2023-03-17T15:46:40.795Z,4.47
2023-03-17T15:51:44.480Z,6.33
2023-03-17T15:56:47.880Z,3.90
2023-03-17T16:08:20.076Z,6.17
2023-03-17T16:18:50.582Z,6.50
2023-03-17T16:23:55.534Z,6.60
2023-03-17T16:28:59.163Z,6.63
2023-03-17T16:34:02.611Z,5.93
2023-03-17T16:39:11.495Z,8.47
2023-03-17T16:44:15.620Z,6.90
2023-03-17T16:49:20.252Z,6.10
2023-03-17T16:54:25.103Z,11.80
2023-03-17T16:59:31.387Z,10.47
2023-03-17T17:04:38.457Z,6.97
2023-03-17T17:09:43.244Z,7.10
2023-03-17T17:14:46.547Z,5.73
2023-03-17T17:19:50.772Z,7.00
2023-03-17T17:24:55.706Z,7.10
2023-03-17T17:29:59.122Z,8.70
2023-03-17T17:35:02.416Z,9.50
2023-03-17T17:40:09.273Z,8.77
2023-03-17T17:45:12.527Z,7.47
2023-03-17T17:50:18.399Z,10.47
2023-03-17T17:55:23.063Z,10.20
2023-03-17T18:00:26.724Z,10.50
2023-03-17T18:05:30.042Z,6.13
2023-03-17T18:10:35.373Z,6.90
2023-03-17T18:15:39.106Z,6.67
2023-03-17T18:20:42.620Z,9.23
2023-03-17T18:25:47.513Z,7.03
2023-03-17T18:30:50.937Z,12.40
2023-03-17T18:35:55.705Z,10.50
2023-03-17T18:41:01.366Z,13.40
2023-03-17T18:46:05.097Z,11.77
2023-03-17T18:51:08.830Z,9.87
2023-03-17T18:56:15.113Z,12.40
2023-03-17T19:01:18.673Z,7.80
2023-03-17T19:06:22.999Z,7.20
2023-03-17T19:11:30.112Z,9.17
2023-03-17T19:16:33.966Z,9.37
2023-03-17T19:21:37.842Z,6.07
2023-03-17T19:26:42.941Z,6.30
2023-03-17T19:31:48.472Z,6.73
2023-03-17T19:36:52.020Z,9.87
2023-03-17T19:41:57.951Z,7.80
2023-03-17T19:47:05.075Z,10.00
2023-03-17T19:52:09.773Z,10.00
2023-03-17T19:57:15.026Z,7.37
2023-03-17T20:02:18.343Z,7.13
2023-03-17T20:07:21.895Z,9.00
2023-03-17T20:12:30.419Z,8.60
2023-03-17T20:17:34.148Z,7.90
2023-03-17T20:22:37.859Z,6.67
2023-03-17T20:27:42.694Z,7.70
2023-03-17T20:32:46.551Z,12.10
2023-03-17T20:37:51.060Z,8.27
2023-03-17T20:42:56.074Z,6.57
2023-03-17T20:47:59.724Z,7.23
2023-03-17T20:53:03.438Z,8.50
2023-03-17T20:58:09.717Z,8.10
2023-03-17T21:03:13.471Z,17.47
2023-03-17T21:08:17.341Z,8.13
2023-03-17T21:13:22.104Z,5.70
2023-03-17T21:18:25.560Z,6.70
2023-03-17T21:23:29.027Z,8.87
2023-03-17T21:28:34.042Z,5.70
2023-03-17T21:33:37.661Z,5.47
2023-03-17T21:38:41.114Z,6.50
2023-03-17T21:43:46.713Z,4.23
2023-03-17T21:48:50.307Z,3.77
2023-03-17T21:53:53.998Z,3.30
2023-03-17T21:58:59.162Z,3.83
2023-03-17T22:04:02.898Z,6.33
2023-03-17T22:09:07.258Z,3.47
2023-03-17T22:14:13.444Z,4.27
2023-03-17T22:19:20.656Z,3.13
2023-03-17T22:24:25.869Z,10.23
2023-03-17T22:29:31.518Z,3.70
2023-03-17T22:34:35.049Z,2.83
2023-03-17T22:39:38.545Z,2.30
2023-03-17T22:44:43.470Z,3.30
2023-03-17T22:49:47.156Z,4.33
2023-03-17T22:54:50.991Z,3.97
2023-03-17T22:59:58.500Z,2.37
2023-03-17T23:05:01.981Z,4.30
2023-03-17T23:10:06.642Z,5.07
2023-03-17T23:15:14.442Z,7.77
2023-03-17T23:20:19.167Z,3.97
2023-03-17T23:25:22.872Z,3.30
2023-03-17T23:30:27.605Z,7.40
2023-03-17T23:35:31.568Z,3.47
2023-03-17T23:40:34.969Z,4.47
2023-03-17T23:45:39.717Z,3.87
2023-03-17T23:50:43.058Z,2.57
2023-03-17T23:55:47.075Z,2.77
